Time;durP1;ratioP1;P1;durP2;ratioP2;P2;SDS_P1;SDS_P2;PMS_P1;PMS_P2;Temp;Humidity;BMP_temperature;BMP_pressure;BME280_temperature;BME280_humidity;BME280_pressure;Samples;Min_cycle;Max_cycle;Signal;HPM_P1;HPM_P2
2023/11/11 00:01:55;;;;;;;37.70;11.95;;;5.80;99.90;;;;;;4958357;28;20515;-89
2023/11/11 00:04:21;;;;;;;15.65;5.90;;;5.80;99.90;;;;;;4958011;28;20547;-90
2023/11/11 00:06:47;;;;;;;13.05;5.90;;;5.80;99.90;;;;;;4974758;28;20035;-90
2023/11/11 00:09:13;;;;;;;15.20;5.65;;;5.80;99.90;;;;;;4958393;28;20043;-89
2023/11/11 00:11:40;;;;;;;14.18;5.22;;;5.70;99.90;;;;;;4958129;28;20029;-90
2023/11/11 00:14:06;;;;;;;10.80;6.30;;;5.70;99.90;;;;;;4958353;28;20030;-89
2023/11/11 00:16:32;;;;;;;13.95;5.18;;;5.70;99.90;;;;;;4975064;28;20080;-89
2023/11/11 00:18:58;;;;;;;15.52;7.00;;;5.70;99.90;;;;;;4958089;28;20023;-90
2023/11/11 00:21:24;;;;;;;13.15;5.22;;;5.70;99.90;;;;;;4958303;28;20362;-90
2023/11/11 00:23:50;;;;;;;13.25;5.28;;;5.70;99.90;;;;;;4958037;28;20030;-90
2023/11/11 00:26:16;;;;;;;9.82;4.82;;;5.70;99.90;;;;;;4957618;28;20476;-91
2023/11/11 00:28:43;;;;;;;11.55;5.72;;;5.70;99.90;;;;;;4957684;28;20019;-89
2023/11/11 00:31:10;;;;;;;22.40;8.25;;;5.70;99.90;;;;;;4957896;28;20110;-90
2023/11/11 00:33:38;;;;;;;22.65;6.97;;;5.70;99.90;;;;;;4958569;28;20412;-89
2023/11/11 00:36:08;;;;;;;11.88;5.97;;;5.60;99.90;;;;;;4971956;28;20566;-90
2023/11/11 00:38:35;;;;;;;14.40;5.83;;;5.60;99.90;;;;;;4974292;28;20023;-91
2023/11/11 00:41:00;;;;;;;30.77;11.70;;;5.70;99.90;;;;;;4958070;28;20023;-89
2023/11/11 00:43:26;;;;;;;14.32;5.57;;;5.60;99.90;;;;;;4957685;28;20105;-89
2023/11/11 00:45:53;;;;;;;13.45;5.72;;;5.70;99.90;;;;;;4954090;28;20054;-90
2023/11/11 00:48:19;;;;;;;9.80;4.95;;;5.70;99.90;;;;;;4970318;28;20023;-89
2023/11/11 00:50:45;;;;;;;11.85;4.65;;;5.70;99.90;;;;;;4970346;28;20596;-89
2023/11/11 00:53:11;;;;;;;8.35;4.55;;;5.70;99.90;;;;;;4954486;28;20082;-89
2023/11/11 00:55:36;;;;;;;7.38;4.15;;;5.70;99.90;;;;;;4954198;28;20027;-90
2023/11/11 00:58:03;;;;;;;10.35;3.67;;;5.70;99.90;;;;;;4970359;28;20119;-89
2023/11/11 01:00:29;;;;;;;8.18;4.50;;;5.80;99.90;;;;;;4955464;29;20050;-89
2023/11/11 01:02:56;;;;;;;10.18;4.43;;;5.80;99.90;;;;;;4970147;28;20069;-90
2023/11/11 01:05:23;;;;;;;9.00;5.40;;;5.80;99.90;;;;;;4951408;29;20027;-89
2023/11/11 01:07:49;;;;;;;11.73;4.97;;;5.90;99.90;;;;;;4954264;29;20027;-89
2023/11/11 01:10:18;;;;;;;19.58;6.72;;;5.80;99.90;;;;;;4953891;28;20032;-89
2023/11/11 01:12:44;;;;;;;12.20;7.13;;;5.80;99.90;;;;;;4952870;29;20016;-90
2023/11/11 01:15:12;;;;;;;13.60;5.88;;;5.80;99.90;;;;;;4969977;28;20070;-90
2023/11/11 01:17:38;;;;;;;15.38;6.50;;;5.80;99.90;;;;;;4970037;28;20030;-90
2023/11/11 01:20:04;;;;;;;10.10;6.25;;;5.80;99.90;;;;;;4970281;28;20034;-89
2023/11/11 01:22:30;;;;;;;14.30;6.15;;;5.80;99.90;;;;;;4970429;28;20023;-89
2023/11/11 01:24:56;;;;;;;11.27;6.30;;;5.80;99.90;;;;;;4970540;28;20074;-89
2023/11/11 01:27:22;;;;;;;14.02;6.53;;;5.80;99.90;;;;;;4970724;28;20053;-89
2023/11/11 01:29:47;;;;;;;12.48;6.90;;;5.90;99.90;;;;;;4971152;28;20027;-91
2023/11/11 01:32:14;;;;;;;11.38;6.45;;;5.80;99.90;;;;;;4955438;28;20035;-90
2023/11/11 01:34:40;;;;;;;14.88;6.80;;;5.90;99.90;;;;;;4955181;29;20035;-91
2023/11/11 01:37:08;;;;;;;14.52;7.00;;;5.90;99.90;;;;;;4971248;28;20544;-91
2023/11/11 01:39:34;;;;;;;14.48;6.72;;;5.90;99.90;;;;;;4954388;29;20027;-90
2023/11/11 01:42:01;;;;;;;13.07;6.05;;;5.90;99.90;;;;;;4954430;28;20027;-90
2023/11/11 01:44:26;;;;;;;10.88;5.80;;;5.90;99.90;;;;;;4956851;28;20134;-91
2023/11/11 01:46:55;;;;;;;8.13;5.22;;;5.90;99.90;;;;;;4973894;28;20063;-90
2023/11/11 01:49:22;;;;;;;11.18;5.72;;;6.00;99.90;;;;;;4957567;28;20027;-91
2023/11/11 01:51:52;;;;;;;15.95;7.00;;;6.00;99.90;;;;;;4957876;28;20046;-90
2023/11/11 01:54:21;;;;;;;10.55;6.15;;;6.00;99.90;;;;;;4974169;28;20042;-90
2023/11/11 01:56:47;;;;;;;9.27;6.53;;;6.00;99.90;;;;;;4958797;28;20042;-90
2023/11/11 01:59:13;;;;;;;10.13;5.82;;;6.00;99.90;;;;;;4958904;29;20031;-91
2023/11/11 02:01:39;;;;;;;12.48;6.35;;;6.00;99.90;;;;;;4960944;29;20023;-90
2023/11/11 02:04:04;;;;;;;12.25;6.68;;;6.00;99.90;;;;;;4961330;28;20034;-90
2023/11/11 02:06:31;;;;;;;12.85;6.07;;;6.00;99.90;;;;;;4965591;28;20018;-91
2023/11/11 02:08:57;;;;;;;13.18;6.68;;;6.00;99.90;;;;;;4996341;28;20202;-90
2023/11/11 02:11:23;;;;;;;15.18;6.05;;;6.00;99.90;;;;;;4995607;28;20031;-90
2023/11/11 02:13:49;;;;;;;8.77;6.03;;;6.00;99.90;;;;;;4972589;29;20041;-90
2023/11/11 02:16:15;;;;;;;17.98;5.53;;;6.00;99.90;;;;;;4982364;28;20035;-90
2023/11/11 02:18:41;;;;;;;11.68;5.10;;;6.00;99.90;;;;;;4960946;29;20024;-90
2023/11/11 02:21:07;;;;;;;11.65;4.82;;;6.00;99.90;;;;;;4978771;28;20161;-90
2023/11/11 02:23:34;;;;;;;6.65;4.93;;;6.00;99.90;;;;;;4976562;28;20036;-90
2023/11/11 02:26:01;;;;;;;13.52;5.47;;;6.00;99.90;;;;;;4974720;28;20032;-90
2023/11/11 02:28:27;;;;;;;6.47;3.97;;;6.00;99.90;;;;;;4968510;28;20007;-90
2023/11/11 02:30:53;;;;;;;4.95;3.60;;;6.00;99.90;;;;;;4994642;28;20046;-89
2023/11/11 02:33:19;;;;;;;5.88;3.95;;;6.00;99.90;;;;;;4977869;29;20421;-90
2023/11/11 02:35:45;;;;;;;6.78;3.55;;;6.00;99.90;;;;;;4994269;28;20023;-90
2023/11/11 02:38:12;;;;;;;8.02;3.45;;;6.00;99.90;;;;;;4964970;28;20023;-90
2023/11/11 02:40:41;;;;;;;10.90;3.10;;;6.00;99.90;;;;;;4964481;28;20083;-90
2023/11/11 02:43:07;;;;;;;11.50;3.42;;;5.90;99.90;;;;;;4962058;28;20046;-91
2023/11/11 02:45:34;;;;;;;7.38;2.88;;;5.90;99.90;;;;;;4959936;28;20051;-92
2023/11/11 02:48:03;;;;;;;7.03;3.63;;;5.90;99.90;;;;;;4976944;28;20042;-90
2023/11/11 02:50:28;;;;;;;4.32;2.90;;;5.90;99.90;;;;;;4960018;28;20042;-91
2023/11/11 02:52:54;;;;;;;4.35;3.05;;;6.00;99.90;;;;;;4975761;28;20481;-90
2023/11/11 02:55:21;;;;;;;5.65;2.47;;;5.90;99.90;;;;;;4975790;28;20039;-89
2023/11/11 02:57:47;;;;;;;7.13;3.10;;;5.90;99.90;;;;;;4959718;29;20120;-89
2023/11/11 03:00:13;;;;;;;9.40;3.53;;;5.90;99.90;;;;;;4958894;29;20047;-90
2023/11/11 03:02:40;;;;;;;4.25;2.78;;;5.90;99.90;;;;;;4957625;28;20455;-90
2023/11/11 03:05:06;;;;;;;6.97;2.83;;;5.90;99.90;;;;;;4972333;28;20042;-89
2023/11/11 03:07:32;;;;;;;12.77;4.30;;;5.90;99.90;;;;;;4972532;28;20069;-89
2023/11/11 03:10:04;;;;;;;9.30;4.18;;;5.90;99.90;;;;;;4971541;28;20027;-92
2023/11/11 03:12:33;;;;;;;9.07;5.60;;;5.80;99.90;;;;;;4970992;28;20114;-91
2023/11/11 03:15:02;;;;;;;9.85;5.22;;;5.80;99.90;;;;;;4956001;29;20126;-91
2023/11/11 03:17:28;;;;;;;11.75;6.15;;;5.80;99.90;;;;;;4972165;28;20031;-89
2023/11/11 03:19:54;;;;;;;11.02;5.80;;;5.80;99.90;;;;;;4956157;28;20043;-90
2023/11/11 03:22:20;;;;;;;12.60;6.28;;;5.70;99.90;;;;;;4973948;28;20098;-89
2023/11/11 03:24:45;;;;;;;11.38;6.70;;;5.70;99.90;;;;;;4972893;28;20083;-90
2023/11/11 03:27:11;;;;;;;14.10;6.28;;;5.70;99.90;;;;;;4972639;28;20020;-90
2023/11/11 03:29:37;;;;;;;13.25;6.78;;;5.60;99.90;;;;;;4959600;28;20035;-89
2023/11/11 03:32:03;;;;;;;15.48;6.57;;;5.60;99.90;;;;;;4985320;28;20039;-90
2023/11/11 03:34:29;;;;;;;15.82;6.68;;;5.60;99.90;;;;;;4966749;28;20039;-88
2023/11/11 03:36:54;;;;;;;10.48;6.45;;;5.60;99.90;;;;;;4963559;28;20016;-90
2023/11/11 03:39:20;;;;;;;19.65;6.88;;;5.50;99.90;;;;;;4958278;28;20027;-90
2023/11/11 03:41:46;;;;;;;13.93;6.07;;;5.50;99.90;;;;;;4973539;28;20015;-90
2023/11/11 03:44:11;;;;;;;11.32;6.03;;;5.40;99.90;;;;;;4956236;29;20054;-90
2023/11/11 03:46:37;;;;;;;13.10;6.40;;;5.40;99.90;;;;;;4956075;28;20106;-90
2023/11/11 03:49:03;;;;;;;12.73;6.13;;;5.30;99.90;;;;;;4951448;29;20046;-90
2023/11/11 03:51:29;;;;;;;15.27;6.05;;;5.30;99.90;;;;;;4973112;28;20023;-91
2023/11/11 03:53:55;;;;;;;16.05;6.40;;;5.30;99.90;;;;;;4955507;28;20034;-91
2023/11/11 03:56:21;;;;;;;13.60;4.75;;;5.20;99.90;;;;;;4955946;29;20038;-88
2023/11/11 03:58:47;;;;;;;9.88;4.88;;;5.30;99.90;;;;;;4956096;29;20054;-91
2023/11/11 04:01:14;;;;;;;10.52;4.68;;;5.30;99.90;;;;;;4955622;28;20027;-90
2023/11/11 04:03:42;;;;;;;12.55;4.80;;;5.20;99.90;;;;;;4971979;28;20028;-91
2023/11/11 04:06:09;;;;;;;10.98;4.63;;;5.30;99.90;;;;;;4971018;28;20043;-89
2023/11/11 04:08:35;;;;;;;9.48;4.78;;;5.20;99.90;;;;;;4956424;29;20039;-90
2023/11/11 04:11:06;;;;;;;8.57;4.28;;;5.20;99.90;;;;;;4956717;29;20023;-90
2023/11/11 04:13:37;;;;;;;12.55;4.35;;;5.20;99.90;;;;;;4957218;28;20043;-90
2023/11/11 04:16:03;;;;;;;8.90;3.90;;;5.20;99.90;;;;;;4957742;28;20043;-90
2023/11/11 04:18:30;;;;;;;22.15;4.45;;;5.20;99.90;;;;;;4975205;28;20031;-90
2023/11/11 04:20:57;;;;;;;9.93;4.68;;;5.20;99.90;;;;;;4956517;28;20514;-91
2023/11/11 04:23:24;;;;;;;12.25;4.03;;;5.20;99.90;;;;;;4982062;28;20019;-88
2023/11/11 04:25:50;;;;;;;7.00;3.83;;;5.20;99.90;;;;;;4976924;28;20015;-88
2023/11/11 04:28:15;;;;;;;11.55;4.05;;;5.10;99.90;;;;;;4977421;29;20038;-89
2023/11/11 04:30:42;;;;;;;6.07;3.50;;;5.10;99.90;;;;;;4991867;28;20023;-90
2023/11/11 04:33:09;;;;;;;9.57;4.03;;;5.10;99.90;;;;;;4959907;28;20037;-90
2023/11/11 04:35:34;;;;;;;8.30;4.03;;;5.10;99.90;;;;;;4957486;29;20452;-89
2023/11/11 04:38:00;;;;;;;7.78;3.85;;;5.00;99.90;;;;;;4955048;29;20035;-91
2023/11/11 04:40:25;;;;;;;9.77;3.70;;;5.00;99.90;;;;;;4956430;29;20030;-89
2023/11/11 04:42:53;;;;;;;7.10;3.15;;;5.00;99.90;;;;;;4955494;28;20023;-90
2023/11/11 04:45:19;;;;;;;7.85;3.58;;;5.00;99.90;;;;;;4971527;28;20054;-91
2023/11/11 04:47:46;;;;;;;10.32;3.50;;;4.90;99.90;;;;;;4954952;28;20035;-91
2023/11/11 04:50:12;;;;;;;6.30;3.35;;;4.90;99.90;;;;;;4955096;29;20027;-91
2023/11/11 04:52:38;;;;;;;10.48;3.65;;;4.90;99.90;;;;;;4955328;29;20051;-90
2023/11/11 04:55:05;;;;;;;5.93;3.15;;;4.80;99.90;;;;;;4971443;28;20042;-91
2023/11/11 04:57:30;;;;;;;6.05;3.05;;;4.80;99.90;;;;;;4970982;28;20019;-91
2023/11/11 04:59:56;;;;;;;6.55;3.20;;;4.80;99.90;;;;;;4970621;28;20116;-91
2023/11/11 05:02:21;;;;;;;11.65;3.70;;;4.70;99.90;;;;;;4954470;28;20485;-90
2023/11/11 05:04:47;;;;;;;6.97;2.90;;;4.70;99.90;;;;;;4954592;29;20023;-91
2023/11/11 05:07:13;;;;;;;5.82;3.53;;;4.70;99.90;;;;;;4954665;29;20042;-91
2023/11/11 05:09:38;;;;;;;6.72;3.30;;;4.70;99.90;;;;;;4970742;28;20019;-91
2023/11/11 05:12:05;;;;;;;7.78;2.75;;;4.60;99.90;;;;;;4970494;28;20030;-91
2023/11/11 05:14:31;;;;;;;6.57;3.10;;;4.60;99.90;;;;;;4970820;28;20043;-90
2023/11/11 05:16:58;;;;;;;5.68;2.42;;;4.60;99.90;;;;;;4955166;28;20428;-90
2023/11/11 05:19:24;;;;;;;8.35;2.50;;;4.60;99.90;;;;;;4957016;29;20505;-91
2023/11/11 05:21:50;;;;;;;4.72;2.53;;;4.50;99.90;;;;;;4959430;28;20027;-92
2023/11/11 05:24:15;;;;;;;4.85;3.10;;;4.50;99.90;;;;;;4959888;28;20047;-91
2023/11/11 05:26:42;;;;;;;4.90;2.63;;;4.50;99.90;;;;;;4970780;28;20038;-90
2023/11/11 05:29:08;;;;;;;4.20;2.63;;;4.50;99.90;;;;;;4976547;28;20082;-93
2023/11/11 05:31:35;;;;;;;5.50;2.80;;;4.40;99.90;;;;;;4975041;28;20027;-91
2023/11/11 05:34:01;;;;;;;6.40;3.33;;;4.40;99.90;;;;;;4975035;28;20043;-91
2023/11/11 05:36:27;;;;;;;4.50;2.70;;;4.40;99.90;;;;;;4974478;28;20031;-93
2023/11/11 05:38:54;;;;;;;4.68;2.50;;;4.30;99.90;;;;;;4958466;29;20093;-92
2023/11/11 05:41:20;;;;;;;5.80;2.65;;;4.30;99.90;;;;;;4974144;28;20074;-90
2023/11/11 05:43:46;;;;;;;5.47;2.72;;;4.30;99.90;;;;;;4976361;28;20122;-92
2023/11/11 05:46:12;;;;;;;8.45;3.50;;;4.30;99.90;;;;;;4960959;28;20054;-91
2023/11/11 05:48:44;;;;;;;4.15;2.47;;;4.20;99.90;;;;;;4961239;28;20039;-90
2023/11/11 05:51:10;;;;;;;3.63;2.25;;;4.20;99.90;;;;;;4978971;28;20050;-91
2023/11/11 05:53:36;;;;;;;6.32;3.00;;;4.20;99.90;;;;;;4977983;28;20476;-92
2023/11/11 05:56:04;;;;;;;4.80;2.30;;;4.20;99.90;;;;;;4961150;28;20041;-90
2023/11/11 05:58:30;;;;;;;4.55;2.40;;;4.10;99.90;;;;;;4977949;28;20022;-90
2023/11/11 06:00:55;;;;;;;2.85;2.13;;;4.10;99.90;;;;;;4977576;28;20037;-92
2023/11/11 06:03:21;;;;;;;6.15;2.65;;;4.10;99.90;;;;;;4960403;28;20054;-92
2023/11/11 06:05:47;;;;;;;5.57;2.67;;;4.10;99.90;;;;;;4976742;28;20027;-90
2023/11/11 06:08:13;;;;;;;3.80;2.10;;;4.10;99.90;;;;;;4960520;28;20034;-92
2023/11/11 06:10:40;;;;;;;4.68;1.90;;;4.10;99.90;;;;;;4962787;28;20030;-90
2023/11/11 06:13:06;;;;;;;3.45;1.80;;;4.10;99.90;;;;;;4977018;28;20054;-90
2023/11/11 06:15:35;;;;;;;4.40;1.67;;;4.00;99.90;;;;;;4976402;28;20039;-91
2023/11/11 06:18:02;;;;;;;4.40;1.63;;;4.00;99.90;;;;;;4960504;28;20023;-91
2023/11/11 06:20:28;;;;;;;2.95;1.65;;;4.00;99.90;;;;;;4975972;28;20104;-90
2023/11/11 06:22:54;;;;;;;2.67;1.48;;;3.90;99.90;;;;;;4975676;28;20118;-90
2023/11/11 06:25:20;;;;;;;3.88;1.35;;;3.90;99.90;;;;;;4975911;28;20104;-90
2023/11/11 06:27:47;;;;;;;3.05;1.20;;;3.90;99.90;;;;;;4978134;28;20030;-90
2023/11/11 06:30:16;;;;;;;4.97;1.30;;;3.80;99.90;;;;;;4960992;28;20023;-90
2023/11/11 06:32:42;;;;;;;3.45;1.50;;;3.80;99.90;;;;;;4975937;28;20042;-90
2023/11/11 06:35:09;;;;;;;2.47;1.60;;;3.70;99.90;;;;;;4976221;28;20058;-90
2023/11/11 06:37:41;;;;;;;4.53;1.75;;;3.70;99.90;;;;;;4976032;28;20481;-90
2023/11/11 06:40:08;;;;;;;2.22;1.33;;;3.60;99.90;;;;;;4960331;28;20130;-89
2023/11/11 06:42:35;;;;;;;1.58;1.23;;;3.70;99.90;;;;;;4976769;28;20038;-90
2023/11/11 06:45:01;;;;;;;4.15;1.02;;;3.60;99.90;;;;;;4972225;28;20406;-89
2023/11/11 06:47:27;;;;;;;2.05;0.80;;;3.70;99.90;;;;;;4972226;28;20126;-91
2023/11/11 06:49:53;;;;;;;1.00;0.90;;;3.70;99.90;;;;;;4972362;28;20555;-90
2023/11/11 06:52:18;;;;;;;2.67;1.05;;;3.60;99.90;;;;;;4972750;28;20335;-89
2023/11/11 06:54:44;;;;;;;1.58;1.17;;;3.60;99.90;;;;;;4972828;28;20066;-90
2023/11/11 06:57:10;;;;;;;3.42;1.20;;;3.60;99.90;;;;;;4956869;29;20358;-89
2023/11/11 06:59:37;;;;;;;1.17;1.05;;;3.60;99.90;;;;;;4972774;28;20028;-89
2023/11/11 07:02:03;;;;;;;2.42;1.63;;;3.60;99.90;;;;;;4972497;28;20474;-91
2023/11/11 07:04:29;;;;;;;1.77;1.17;;;3.60;99.90;;;;;;4973099;28;20504;-89
2023/11/11 07:06:56;;;;;;;3.25;1.55;;;3.50;99.90;;;;;;4974143;28;20028;-89
2023/11/11 07:09:22;;;;;;;6.07;1.90;;;3.50;99.90;;;;;;4957092;28;20109;-91
2023/11/11 07:11:48;;;;;;;3.13;1.60;;;3.50;99.90;;;;;;4970300;28;20110;-91
2023/11/11 07:14:14;;;;;;;6.55;2.08;;;3.50;99.90;;;;;;4956306;28;20034;-90
2023/11/11 07:16:40;;;;;;;5.45;2.03;;;3.50;99.90;;;;;;4958045;29;20493;-89
2023/11/11 07:19:06;;;;;;;5.82;2.83;;;3.50;99.90;;;;;;4956687;29;20062;-90
2023/11/11 07:21:32;;;;;;;4.57;2.33;;;3.50;99.90;;;;;;4956259;29;20030;-90
2023/11/11 07:23:58;;;;;;;5.18;1.67;;;3.50;99.90;;;;;;4970747;28;20023;-90
2023/11/11 07:26:25;;;;;;;5.03;1.85;;;3.40;99.90;;;;;;4971029;28;20074;-89
2023/11/11 07:28:51;;;;;;;4.13;2.40;;;3.50;99.90;;;;;;4955683;28;20131;-93
2023/11/11 07:31:18;;;;;;;3.33;1.10;;;3.40;99.90;;;;;;4954299;29;20033;-91
2023/11/11 07:33:44;;;;;;;4.65;1.35;;;3.50;99.90;;;;;;4971484;28;20061;-90
2023/11/11 07:36:11;;;;;;;1.48;1.10;;;3.50;99.90;;;;;;4971287;28;20046;-92
2023/11/11 07:38:39;;;;;;;1.52;1.10;;;3.50;99.90;;;;;;4955197;29;20019;-91
2023/11/11 07:41:06;;;;;;;2.28;1.30;;;3.50;99.90;;;;;;4970607;28;20023;-91
2023/11/11 07:43:32;;;;;;;2.80;1.33;;;3.50;99.90;;;;;;4955577;28;20026;-91
2023/11/11 07:46:00;;;;;;;3.95;1.15;;;3.50;99.90;;;;;;4957648;28;20031;-90
2023/11/11 07:48:26;;;;;;;1.85;1.30;;;3.60;99.90;;;;;;4958778;28;20023;-91
2023/11/11 07:50:52;;;;;;;5.93;1.20;;;3.60;99.90;;;;;;4958829;28;20027;-91
2023/11/11 07:53:18;;;;;;;2.17;1.33;;;3.60;99.90;;;;;;4958517;28;20046;-91
2023/11/11 07:55:44;;;;;;;2.47;1.30;;;3.60;99.90;;;;;;4973453;28;20050;-91
2023/11/11 07:58:11;;;;;;;2.65;1.40;;;3.60;99.90;;;;;;4958177;28;20023;-92
2023/11/11 08:00:36;;;;;;;3.75;1.60;;;3.70;99.90;;;;;;4978770;28;20019;-92
2023/11/11 08:03:05;;;;;;;1.95;1.10;;;3.80;99.90;;;;;;4979568;28;20019;-91
2023/11/11 08:05:32;;;;;;;3.15;1.38;;;3.90;99.90;;;;;;4981179;28;20023;-93
2023/11/11 08:07:58;;;;;;;3.05;1.30;;;3.90;99.90;;;;;;4978623;28;21367;-91
2023/11/11 08:10:25;;;;;;;3.92;1.40;;;3.90;99.90;;;;;;4961322;28;20074;-91
2023/11/11 08:12:51;;;;;;;4.60;1.45;;;4.00;99.90;;;;;;4961477;28;20117;-94
2023/11/11 08:15:19;;;;;;;3.85;1.40;;;3.90;99.90;;;;;;4980508;28;20046;-93
2023/11/11 08:17:45;;;;;;;2.85;2.15;;;4.00;99.90;;;;;;4972654;28;20034;-90
2023/11/11 08:20:15;;;;;;;3.28;1.60;;;4.00;99.90;;;;;;4978181;28;20031;-92
2023/11/11 08:22:45;;;;;;;3.35;1.98;;;3.90;99.90;;;;;;4973297;28;20046;-91
2023/11/11 08:25:13;;;;;;;3.17;1.50;;;3.90;99.90;;;;;;4966241;28;20166;-91
2023/11/11 08:27:43;;;;;;;2.75;1.40;;;4.00;99.90;;;;;;4979319;28;20041;-92
2023/11/11 08:30:13;;;;;;;3.33;1.57;;;3.90;99.90;;;;;;4980444;28;20031;-91
2023/11/11 08:32:42;;;;;;;3.67;1.10;;;4.00;99.90;;;;;;4983721;28;20262;-90
2023/11/11 08:35:15;;;;;;;2.20;1.20;;;4.00;99.90;;;;;;4972666;28;20066;-92
2023/11/11 08:37:44;;;;;;;5.05;1.20;;;4.00;99.90;;;;;;4986136;28;20039;-91
2023/11/11 08:40:11;;;;;;;2.90;1.30;;;4.10;99.90;;;;;;4969357;28;20023;-91
2023/11/11 08:42:38;;;;;;;2.75;0.77;;;4.10;99.90;;;;;;4979676;28;20039;-91
2023/11/11 08:45:05;;;;;;;3.45;1.10;;;4.10;99.90;;;;;;4970984;28;20074;-90
2023/11/11 08:47:31;;;;;;;4.18;1.42;;;4.10;99.90;;;;;;4953916;29;20024;-91
2023/11/11 08:49:57;;;;;;;3.55;1.20;;;4.10;99.90;;;;;;4968323;28;20537;-91
2023/11/11 08:52:22;;;;;;;1.42;1.10;;;4.20;99.90;;;;;;4954258;28;20019;-91
2023/11/11 08:54:50;;;;;;;3.47;1.13;;;4.20;99.90;;;;;;4968508;28;20382;-90
2023/11/11 08:57:17;;;;;;;3.47;0.95;;;4.30;99.90;;;;;;4960458;28;20023;-91
2023/11/11 08:59:42;;;;;;;5.93;1.17;;;4.40;99.90;;;;;;4953177;28;20031;-91
2023/11/11 09:02:09;;;;;;;1.90;0.98;;;4.40;99.90;;;;;;4968573;28;20492;-90
2023/11/11 09:04:35;;;;;;;2.95;1.20;;;4.50;99.90;;;;;;4969070;28;20110;-90
2023/11/11 09:07:02;;;;;;;2.47;1.30;;;4.70;99.90;;;;;;4968478;28;20093;-90
2023/11/11 09:09:28;;;;;;;3.28;1.75;;;4.90;99.90;;;;;;4969705;28;20118;-91
2023/11/11 09:11:57;;;;;;;3.10;1.50;;;5.00;99.90;;;;;;4970212;28;20031;-89
2023/11/11 09:14:23;;;;;;;5.07;1.63;;;5.20;99.90;;;;;;4954784;28;20023;-90
2023/11/11 09:16:48;;;;;;;2.72;1.40;;;5.40;99.90;;;;;;4973390;28;20548;-90
2023/11/11 09:19:14;;;;;;;3.47;1.23;;;5.60;99.90;;;;;;4982042;28;20119;-89
2023/11/11 09:21:41;;;;;;;3.72;1.65;;;5.90;99.90;;;;;;4991106;28;20020;-90
2023/11/11 09:24:07;;;;;;;3.00;1.30;;;6.20;99.90;;;;;;4999588;28;20038;-90
2023/11/11 09:26:33;;;;;;;2.35;0.95;;;6.50;99.90;;;;;;4978379;28;20023;-91
2023/11/11 09:28:59;;;;;;;3.30;1.20;;;6.80;99.90;;;;;;4958957;28;20071;-91
2023/11/11 09:31:28;;;;;;;2.22;0.90;;;7.10;99.90;;;;;;4972100;28;20074;-90
2023/11/11 09:34:00;;;;;;;2.75;1.20;;;7.40;99.90;;;;;;4973467;28;20039;-91
2023/11/11 09:36:28;;;;;;;4.43;1.35;;;7.80;99.90;;;;;;4973720;28;20065;-92
2023/11/11 09:38:54;;;;;;;3.83;1.58;;;8.20;99.90;;;;;;4972370;28;20035;-92
2023/11/11 09:41:20;;;;;;;2.13;1.13;;;8.60;99.90;;;;;;4974673;28;20027;-92
2023/11/11 09:43:47;;;;;;;3.60;2.20;;;9.00;99.90;;;;;;4974309;28;20027;-93
2023/11/11 09:46:17;;;;;;;13.63;2.80;;;9.30;99.90;;;;;;4959675;28;20026;-92
2023/11/11 09:48:43;;;;;;;5.15;1.83;;;9.70;99.90;;;;;;4977099;28;20045;-93
2023/11/11 09:51:10;;;;;;;2.35;1.33;;;9.90;99.90;;;;;;4961026;28;20709;-92
2023/11/11 09:53:40;;;;;;;4.25;1.40;;;10.10;99.90;;;;;;4977704;28;20031;-90
2023/11/11 09:56:07;;;;;;;1.85;1.00;;;10.40;99.90;;;;;;4962394;28;20500;-90
2023/11/11 09:58:33;;;;;;;2.40;1.13;;;10.60;99.90;;;;;;4944747;28;20067;-91
2023/11/11 10:00:59;;;;;;;4.55;1.02;;;10.80;99.90;;;;;;4974364;28;20061;-91
2023/11/11 10:03:25;;;;;;;4.28;1.05;;;10.90;99.90;;;;;;4958561;28;20023;-90
2023/11/11 10:05:51;;;;;;;3.60;1.13;;;11.10;99.90;;;;;;4978629;28;20034;-90
2023/11/11 10:08:18;;;;;;;5.63;1.45;;;11.30;99.90;;;;;;4981010;28;20023;-90
2023/11/11 10:10:44;;;;;;;2.28;1.00;;;11.40;99.90;;;;;;4980900;28;20290;-90
2023/11/11 10:13:10;;;;;;;4.78;1.20;;;11.70;99.90;;;;;;4979967;28;20015;-90
2023/11/11 10:15:35;;;;;;;2.75;1.40;;;11.80;99.90;;;;;;4995003;28;20102;-90
2023/11/11 10:18:04;;;;;;;8.20;1.58;;;12.00;99.90;;;;;;4980041;28;20059;-89
2023/11/11 10:20:40;;;;;;;8.48;1.92;;;12.20;99.90;;;;;;4971390;28;20030;-90
2023/11/11 10:23:07;;;;;;;2.22;0.90;;;12.40;99.90;;;;;;4972118;28;20026;-92
2023/11/11 10:25:35;;;;;;;1.92;0.65;;;12.60;99.90;;;;;;4966578;28;20081;-89
2023/11/11 10:28:02;;;;;;;3.90;0.70;;;12.80;99.90;;;;;;5306727;23;20047;-90
2023/11/11 10:30:28;;;;;;;3.30;0.70;;;13.00;99.90;;;;;;4965050;28;20130;-91
2023/11/11 10:32:56;;;;;;;2.92;0.68;;;13.20;99.90;;;;;;4964326;28;20035;-91
2023/11/11 10:35:24;;;;;;;2.40;1.05;;;13.40;99.90;;;;;;4962635;28;20572;-92
2023/11/11 10:37:50;;;;;;;2.60;0.65;;;13.60;99.90;;;;;;4962705;28;20233;-91
2023/11/11 10:40:17;;;;;;;6.43;0.93;;;13.80;99.90;;;;;;4963117;28;20125;-91
2023/11/11 10:42:47;;;;;;;2.78;0.60;;;14.10;99.90;;;;;;4964348;28;20102;-91
2023/11/11 10:45:15;;;;;;;2.42;0.60;;;14.40;99.10;;;;;;4962966;28;20019;-90
2023/11/11 10:47:45;;;;;;;3.85;0.90;;;14.60;97.80;;;;;;4965149;28;20114;-90
2023/11/11 10:50:11;;;;;;;2.53;0.73;;;14.90;96.50;;;;;;4961305;28;20106;-91
2023/11/11 10:52:41;;;;;;;1.20;0.50;;;15.10;95.20;;;;;;4960190;29;20310;-91
2023/11/11 10:55:08;;;;;;;1.85;0.88;;;15.20;94.00;;;;;;4958501;29;20098;-91
2023/11/11 10:57:36;;;;;;;2.10;0.77;;;15.30;93.40;;;;;;4943760;29;20179;-90
2023/11/11 11:00:04;;;;;;;2.15;0.68;;;15.40;92.80;;;;;;4958315;29;20508;-90
2023/11/11 11:02:31;;;;;;;3.72;0.75;;;15.40;92.30;;;;;;4942035;29;20023;-91
2023/11/11 11:05:05;;;;;;;2.08;0.68;;;15.50;91.30;;;;;;4957130;29;20039;-91
2023/11/11 11:07:40;;;;;;;3.40;0.57;;;15.50;91.00;;;;;;4958101;29;20042;-90
2023/11/11 11:10:14;;;;;;;1.70;0.50;;;15.60;90.50;;;;;;4958690;29;20038;-90
2023/11/11 11:12:57;;;;;;;1.98;0.77;;;15.70;90.00;;;;;;4958165;29;20031;-90
2023/11/11 11:15:24;;;;;;;5.35;0.93;;;15.70;88.80;;;;;;4958051;28;20039;-91
2023/11/11 11:17:51;;;;;;;1.75;0.40;;;15.80;88.60;;;;;;4959038;29;20130;-91
2023/11/11 11:20:24;;;;;;;5.60;0.90;;;15.90;87.20;;;;;;4959311;29;20062;-91
2023/11/11 11:22:59;;;;;;;3.33;0.60;;;15.90;85.60;;;;;;4964085;29;20023;-91
2023/11/11 11:25:36;;;;;;;5.40;0.68;;;15.90;85.60;;;;;;4974566;29;20147;-91
2023/11/11 11:28:11;;;;;;;2.67;0.60;;;16.10;84.80;;;;;;4978458;28;20051;-90
2023/11/11 11:30:46;;;;;;;2.47;0.40;;;16.00;82.70;;;;;;4979248;29;20039;-91
2023/11/11 11:33:17;;;;;;;4.18;0.90;;;16.10;82.60;;;;;;4978606;28;20024;-90
2023/11/11 11:35:53;;;;;;;2.08;0.55;;;16.10;82.00;;;;;;4962816;28;20046;-92
2023/11/11 11:38:39;;;;;;;3.22;0.45;;;16.10;81.10;;;;;;4963331;29;20015;-91
2023/11/11 11:41:23;;;;;;;3.47;0.60;;;16.30;80.80;;;;;;4969555;29;20051;-90
2023/11/11 11:43:53;;;;;;;2.58;0.50;;;16.50;80.20;;;;;;4963630;29;20094;-91
2023/11/11 11:46:23;;;;;;;2.75;0.43;;;16.70;79.30;;;;;;4962390;29;20023;-90
2023/11/11 11:48:50;;;;;;;1.20;0.37;;;16.70;78.50;;;;;;4959730;28;20039;-90
2023/11/11 11:51:18;;;;;;;3.85;0.57;;;16.80;78.50;;;;;;4959886;29;20032;-89
2023/11/11 11:53:45;;;;;;;1.65;0.55;;;16.80;77.80;;;;;;4959160;29;20050;-90
2023/11/11 11:56:28;;;;;;;4.80;0.80;;;16.60;77.20;;;;;;4958526;29;20036;-90
2023/11/11 11:58:54;;;;;;;3.38;0.65;;;16.20;76.70;;;;;;4958569;29;20031;-90
2023/11/11 12:01:23;;;;;;;4.95;0.73;;;15.80;77.50;;;;;;4959008;29;20497;-91
2023/11/11 12:03:50;;;;;;;2.88;0.60;;;15.40;78.10;;;;;;4958919;29;20023;-90
2023/11/11 12:06:16;;;;;;;2.72;0.60;;;15.30;78.90;;;;;;4957149;29;20585;-89
2023/11/11 12:08:50;;;;;;;4.90;1.00;;;15.20;79.30;;;;;;4957701;29;20058;-91
2023/11/11 12:11:26;;;;;;;4.30;0.82;;;15.20;79.30;;;;;;4942549;29;20031;-90
2023/11/11 12:13:53;;;;;;;5.88;0.80;;;15.40;79.30;;;;;;4962870;29;20066;-91
2023/11/11 12:16:19;;;;;;;3.60;0.52;;;15.80;78.90;;;;;;4959511;29;20035;-91
2023/11/11 12:18:47;;;;;;;7.45;0.95;;;16.20;78.10;;;;;;4957039;29;20448;-90
2023/11/11 12:21:18;;;;;;;3.85;0.50;;;16.40;77.20;;;;;;4956661;29;20027;-90
2023/11/11 12:23:44;;;;;;;2.95;0.57;;;16.30;75.80;;;;;;4956903;29;20093;-90
2023/11/11 12:26:10;;;;;;;1.30;0.50;;;16.10;75.70;;;;;;4940618;29;20027;-91
2023/11/11 12:28:36;;;;;;;6.28;1.08;;;16.10;75.90;;;;;;4955958;29;20056;-91
2023/11/11 12:31:03;;;;;;;3.33;1.30;;;16.30;75.90;;;;;;4957070;29;20027;-91
2023/11/11 12:33:30;;;;;;;4.88;1.42;;;16.40;75.50;;;;;;4956664;29;20027;-91
2023/11/11 12:35:56;;;;;;;4.43;1.60;;;16.50;75.50;;;;;;4956092;29;20510;-91
2023/11/11 12:38:28;;;;;;;3.15;1.30;;;16.20;75.20;;;;;;4956123;29;20034;-90
2023/11/11 12:40:55;;;;;;;2.67;1.65;;;15.80;75.70;;;;;;4955854;29;20028;-90
2023/11/11 12:43:27;;;;;;;4.07;1.52;;;15.50;76.60;;;;;;4956371;29;20028;-90
2023/11/11 12:45:54;;;;;;;4.93;2.13;;;15.50;77.80;;;;;;4956119;29;20113;-91
2023/11/11 12:48:27;;;;;;;5.97;1.48;;;15.80;78.10;;;;;;4958647;28;20030;-90
2023/11/11 12:50:53;;;;;;;4.03;2.00;;;16.10;77.80;;;;;;4957422;29;20485;-91
2023/11/11 12:53:20;;;;;;;2.05;1.10;;;16.60;77.40;;;;;;4955947;29;20028;-91